Cochabamba, Bolivia
Current Conditions -  °F | °C
As of 6:00 AM on Thursday 29 Jan 2015 (Local Time) from SLCB Reporting Station
Light Rain Light Rain  
Wind Chill: 61°   Ceiling: 7000
Heat Index: 61°   Visibility: 6mi
Dew Point: 54°   Wind: 0mph
Humidity: 77%   Direction: NA
Pressure: 30.27"   Gusts: NA
Location:  17.38°S, 66.17°W
Report Text: SLCB 291000Z 00000KT 9999 -RA SCT023 FEW027CB BKN070 BKN200 16/12 Q1025
Loading
Personal Weather Stations






























Interactive Weather Map New forecast layout! Learn more

10-Day Weather Forecast

Advertisements
Track Severe Weather on mobile